createdAt,value
2023-02-20T00:01:12.604Z,73.28
2023-02-20T00:02:44.218Z,73.63
2023-02-20T00:04:15.792Z,73.41
2023-02-20T00:05:47.500Z,73.68
2023-02-20T00:07:19.074Z,73.36
2023-02-20T00:08:50.631Z,73.46
2023-02-20T00:10:22.656Z,74.13
2023-02-20T00:11:54.274Z,73.82
2023-02-20T00:13:25.819Z,73.82
2023-02-20T00:14:57.455Z,73.99
2023-02-20T00:16:30.309Z,74.18
2023-02-20T00:18:02.007Z,74.15
2023-02-20T00:19:33.552Z,73.78
2023-02-20T00:21:05.944Z,73.94
2023-02-20T00:22:37.529Z,73.88
2023-02-20T00:24:09.099Z,74.24
2023-02-20T00:25:40.681Z,74.36
2023-02-20T00:27:12.526Z,74.40
2023-02-20T00:28:44.750Z,74.50
2023-02-20T00:30:18.608Z,73.75
2023-02-20T00:31:52.679Z,73.88
2023-02-20T00:33:24.500Z,74.07
2023-02-20T00:34:56.081Z,74.42
2023-02-20T00:36:27.650Z,74.02
2023-02-20T00:37:59.215Z,74.12
2023-02-20T00:39:31.717Z,74.65
2023-02-20T00:41:03.571Z,74.59
2023-02-20T00:42:35.184Z,73.98
2023-02-20T00:44:06.740Z,73.71
2023-02-20T00:45:38.400Z,73.94
2023-02-20T00:47:11.393Z,74.74
2023-02-20T00:48:45.107Z,74.23
2023-02-20T00:50:35.440Z,74.10
2023-02-20T00:52:06.967Z,73.74
2023-02-20T00:53:40.067Z,73.64
2023-02-20T00:55:11.846Z,73.42
2023-02-20T00:56:43.446Z,74.01
2023-02-20T00:58:14.997Z,73.24
2023-02-20T00:59:46.751Z,73.82
2023-02-20T01:01:18.397Z,73.36
2023-02-20T01:02:51.396Z,72.80
2023-02-20T01:04:23.107Z,73.05
2023-02-20T01:05:54.696Z,72.97
2023-02-20T01:07:26.287Z,73.85
2023-02-20T01:08:57.857Z,73.08
2023-02-20T01:10:29.377Z,73.14
2023-02-20T01:12:01.031Z,73.54
2023-02-20T01:13:32.869Z,73.33
2023-02-20T01:15:04.859Z,73.95
2023-02-20T01:16:36.464Z,73.40
2023-02-20T01:18:09.602Z,74.06
2023-02-20T01:19:42.727Z,73.89
2023-02-20T01:21:14.307Z,74.35
2023-02-20T01:22:47.164Z,73.66
2023-02-20T01:24:18.920Z,74.05
2023-02-20T01:25:52.206Z,73.90
2023-02-20T01:27:23.860Z,74.45
2023-02-20T01:28:55.520Z,74.43
2023-02-20T01:30:28.010Z,74.18
2023-02-20T01:31:59.716Z,73.43
2023-02-20T01:33:32.763Z,73.68
2023-02-20T01:35:04.425Z,73.33
2023-02-20T01:36:36.483Z,73.82
2023-02-20T01:38:08.061Z,73.92
2023-02-20T01:39:40.110Z,73.36
2023-02-20T01:41:12.235Z,73.67
2023-02-20T01:42:43.788Z,73.69
2023-02-20T01:44:19.261Z,73.53
2023-02-20T01:45:50.833Z,73.99
2023-02-20T01:47:23.320Z,74.30
2023-02-20T01:48:57.629Z,74.31
2023-02-20T01:50:30.948Z,73.81
2023-02-20T01:52:08.174Z,74.50
2023-02-20T01:53:39.776Z,73.98
2023-02-20T01:55:16.104Z,74.38
2023-02-20T01:56:48.566Z,74.30
2023-02-20T01:58:22.880Z,74.07
2023-02-20T01:59:57.313Z,73.91
2023-02-20T02:01:28.940Z,73.97
2023-02-20T02:03:02.733Z,73.44
2023-02-20T02:04:37.365Z,73.77
2023-02-20T02:06:10.703Z,73.99
2023-02-20T02:07:44.559Z,73.24
2023-02-20T02:09:20.209Z,73.21
2023-02-20T02:10:57.053Z,72.82
2023-02-20T02:12:28.816Z,73.07
2023-02-20T02:14:00.396Z,72.08
2023-02-20T02:15:32.068Z,72.27
2023-02-20T02:17:18.970Z,72.29
2023-02-20T02:18:55.208Z,72.97
2023-02-20T02:20:41.647Z,73.15
2023-02-20T02:22:26.816Z,72.74
2023-02-20T02:24:11.788Z,73.74
2023-02-20T02:25:49.536Z,74.02
2023-02-20T02:27:43.053Z,74.12
2023-02-20T02:29:25.161Z,73.65
2023-02-20T02:31:25.562Z,73.62
2023-02-20T02:33:03.568Z,73.72
2023-02-20T02:34:54.883Z,73.92
2023-02-20T02:36:36.717Z,73.66
2023-02-20T02:38:14.137Z,74.02
2023-02-20T02:39:49.018Z,74.70
2023-02-20T02:41:22.617Z,75.06
2023-02-20T02:42:59.494Z,75.01
2023-02-20T02:44:32.891Z,74.77
2023-02-20T02:46:07.946Z,74.88
2023-02-20T02:47:46.049Z,75.04
2023-02-20T02:49:20.426Z,74.81
2023-02-20T02:50:54.565Z,74.75
2023-02-20T02:52:48.988Z,74.65
2023-02-20T02:54:26.289Z,75.28
2023-02-20T02:56:17.857Z,75.25
2023-02-20T02:57:50.593Z,75.39
2023-02-20T02:59:24.832Z,75.20
2023-02-20T03:00:58.405Z,75.64
2023-02-20T03:02:33.039Z,75.30
2023-02-20T03:04:07.656Z,74.91
2023-02-20T03:05:46.272Z,75.80
2023-02-20T03:07:19.768Z,75.69
2023-02-20T03:08:57.772Z,75.90
2023-02-20T03:10:32.357Z,75.80
2023-02-20T03:12:06.872Z,75.83
2023-02-20T03:14:00.915Z,75.31
2023-02-20T03:15:36.386Z,75.28
2023-02-20T03:17:12.513Z,75.38
2023-02-20T03:18:46.201Z,75.37
2023-02-20T03:20:21.094Z,76.15
2023-02-20T03:21:55.806Z,75.74
2023-02-20T03:23:32.007Z,75.90
2023-02-20T03:25:09.391Z,75.88
2023-02-20T03:26:42.609Z,75.43
2023-02-20T03:28:16.992Z,75.70
2023-02-20T03:29:49.900Z,76.19
2023-02-20T03:31:24.042Z,76.10
2023-02-20T03:33:16.763Z,75.39
2023-02-20T03:35:10.413Z,75.50
2023-02-20T03:37:04.482Z,75.41
2023-02-20T03:38:55.965Z,75.55
2023-02-20T03:40:47.939Z,75.95
2023-02-20T03:42:39.260Z,76.29
2023-02-20T03:44:19.486Z,76.16
2023-02-20T03:45:52.217Z,75.75
2023-02-20T03:47:26.996Z,76.51
2023-02-20T03:49:00.306Z,76.10
2023-02-20T03:50:32.022Z,76.03
2023-02-20T03:52:04.836Z,76.05
2023-02-20T03:53:43.600Z,76.22
2023-02-20T03:55:15.370Z,76.18
2023-02-20T03:56:53.062Z,75.69
2023-02-20T03:58:27.205Z,75.68
2023-02-20T04:00:01.127Z,75.60
2023-02-20T04:01:34.639Z,75.72
2023-02-20T04:03:10.604Z,76.13
2023-02-20T04:04:47.991Z,75.47
2023-02-20T04:06:21.576Z,75.84
2023-02-20T04:07:57.713Z,75.74
2023-02-20T04:09:35.000Z,75.70
2023-02-20T04:11:10.413Z,75.25
2023-02-20T04:12:44.172Z,75.88
2023-02-20T04:14:18.856Z,76.15
2023-02-20T04:15:51.967Z,75.39
2023-02-20T04:17:26.227Z,75.74
2023-02-20T04:18:58.355Z,75.45
2023-02-20T04:20:30.134Z,75.73
2023-02-20T04:22:28.387Z,75.51
2023-02-20T04:24:03.343Z,75.43
2023-02-20T04:25:40.012Z,75.71
2023-02-20T04:27:12.662Z,75.84
2023-02-20T04:28:53.301Z,76.24
2023-02-20T04:30:25.273Z,76.07
2023-02-20T04:31:56.975Z,76.01
2023-02-20T04:33:31.586Z,75.71
2023-02-20T04:35:10.439Z,75.49
2023-02-20T04:36:42.228Z,75.87
2023-02-20T04:38:14.170Z,75.48
2023-02-20T04:39:46.568Z,75.46
2023-02-20T04:41:18.818Z,75.83
2023-02-20T04:42:50.460Z,75.18
2023-02-20T04:44:32.284Z,75.96
2023-02-20T04:46:04.039Z,75.85
2023-02-20T04:47:36.337Z,75.67
2023-02-20T04:49:08.081Z,75.34
2023-02-20T04:50:41.151Z,75.44
2023-02-20T04:52:13.487Z,75.87
2023-02-20T04:53:46.285Z,75.54
2023-02-20T04:55:18.239Z,76.34
2023-02-20T04:56:49.903Z,75.47
2023-02-20T04:58:21.528Z,75.65
2023-02-20T04:59:58.333Z,75.76
2023-02-20T05:01:29.948Z,76.16
2023-02-20T05:03:01.542Z,75.64
2023-02-20T05:04:33.144Z,75.70
2023-02-20T05:06:04.867Z,75.42
2023-02-20T05:07:36.428Z,76.40
2023-02-20T05:09:09.273Z,75.54
2023-02-20T05:10:40.940Z,75.53
2023-02-20T05:12:12.507Z,75.46
2023-02-20T05:13:44.127Z,75.90
2023-02-20T05:15:17.132Z,76.22
2023-02-20T05:16:49.184Z,76.30
2023-02-20T05:18:24.073Z,75.89
2023-02-20T05:19:55.609Z,75.96
2023-02-20T05:21:45.954Z,76.71
2023-02-20T05:23:17.519Z,76.30
2023-02-20T05:24:50.489Z,75.84
2023-02-20T05:26:22.141Z,76.58
2023-02-20T05:27:53.701Z,76.67
2023-02-20T05:29:25.383Z,76.65
2023-02-20T05:30:58.283Z,76.40
2023-02-20T05:32:30.591Z,75.98
2023-02-20T05:34:02.213Z,76.57
2023-02-20T05:35:36.039Z,76.69
2023-02-20T05:37:07.627Z,76.18
2023-02-20T05:38:41.416Z,76.53
2023-02-20T05:40:12.967Z,76.74
2023-02-20T05:41:45.118Z,76.23
2023-02-20T05:43:16.889Z,76.48
2023-02-20T05:44:49.688Z,76.66
2023-02-20T05:46:22.658Z,76.06
2023-02-20T05:47:54.214Z,76.64
2023-02-20T05:49:26.056Z,76.26
2023-02-20T05:50:58.649Z,76.39
2023-02-20T05:52:30.306Z,76.57
2023-02-20T05:54:02.090Z,76.42
2023-02-20T05:55:33.654Z,76.61
2023-02-20T05:57:05.397Z,77.13
2023-02-20T05:58:36.953Z,77.00
2023-02-20T06:00:09.059Z,76.55
2023-02-20T06:01:45.340Z,76.35
2023-02-20T06:03:17.369Z,76.57
2023-02-20T06:04:49.282Z,76.79
2023-02-20T06:06:21.270Z,76.29
2023-02-20T06:07:52.833Z,76.81
2023-02-20T06:09:24.363Z,76.68
2023-02-20T06:10:56.044Z,76.94
2023-02-20T06:12:27.645Z,76.66
2023-02-20T06:13:59.266Z,76.51
2023-02-20T06:15:30.896Z,76.87
2023-02-20T06:17:03.993Z,76.47
2023-02-20T06:18:38.078Z,77.08
2023-02-20T06:20:09.870Z,76.92
2023-02-20T06:21:44.683Z,77.24
2023-02-20T06:23:16.234Z,77.02
2023-02-20T06:24:47.889Z,76.28
2023-02-20T06:26:19.858Z,76.34
2023-02-20T06:27:51.510Z,75.97
2023-02-20T06:29:23.693Z,76.26
2023-02-20T06:30:55.756Z,76.37
2023-02-20T06:32:28.768Z,75.96
2023-02-20T06:34:00.435Z,75.02
2023-02-20T06:35:32.060Z,75.29
2023-02-20T06:37:04.093Z,75.66
2023-02-20T06:38:36.164Z,75.27
2023-02-20T06:40:08.265Z,75.16
2023-02-20T06:41:40.860Z,75.12
2023-02-20T06:43:13.218Z,74.43
2023-02-20T06:44:44.771Z,75.22
2023-02-20T06:46:16.406Z,74.56
2023-02-20T06:47:49.317Z,74.48
2023-02-20T06:49:20.994Z,74.82
2023-02-20T06:50:56.162Z,74.41
2023-02-20T06:52:27.800Z,73.94
2023-02-20T06:54:00.173Z,74.10
2023-02-20T06:55:32.700Z,74.00
2023-02-20T06:57:04.352Z,73.58
2023-02-20T06:58:35.900Z,73.23
2023-02-20T07:00:08.111Z,74.38
2023-02-20T07:01:41.056Z,73.94
2023-02-20T07:03:13.986Z,73.34
2023-02-20T07:04:48.049Z,73.70
2023-02-20T07:06:19.639Z,73.30
2023-02-20T07:07:51.300Z,73.47
2023-02-20T07:09:22.924Z,73.60
2023-02-20T07:10:55.279Z,73.29
2023-02-20T07:12:28.751Z,72.67
2023-02-20T07:14:00.369Z,73.26
2023-02-20T07:15:31.899Z,72.82
2023-02-20T07:17:03.533Z,73.29
2023-02-20T07:18:36.537Z,73.46
2023-02-20T07:20:08.563Z,72.84
2023-02-20T07:21:40.225Z,72.92
2023-02-20T07:23:11.779Z,72.41
2023-02-20T07:24:43.372Z,72.24
2023-02-20T07:26:18.741Z,72.34
2023-02-20T07:27:50.531Z,73.12
2023-02-20T07:29:22.109Z,72.59
2023-02-20T07:30:53.636Z,73.18
2023-02-20T07:32:25.201Z,72.23
2023-02-20T07:33:58.588Z,72.30
2023-02-20T07:35:30.267Z,72.73
2023-02-20T07:37:07.028Z,72.56
2023-02-20T07:38:38.789Z,71.72
2023-02-20T07:40:11.913Z,72.17
2023-02-20T07:41:43.538Z,71.80
2023-02-20T07:43:45.283Z,71.40
2023-02-20T07:45:17.323Z,71.26
2023-02-20T07:46:48.867Z,71.63
2023-02-20T07:48:20.439Z,71.46
2023-02-20T07:49:53.388Z,71.12
2023-02-20T07:51:25.000Z,71.48
2023-02-20T07:52:56.567Z,70.89
2023-02-20T07:54:28.188Z,71.12
2023-02-20T07:55:59.814Z,71.14
2023-02-20T07:57:33.889Z,71.19
2023-02-20T07:59:05.465Z,70.97
2023-02-20T08:00:37.406Z,71.36
2023-02-20T08:02:09.020Z,70.68
2023-02-20T08:03:40.627Z,70.32
2023-02-20T08:05:13.661Z,70.17
2023-02-20T08:06:45.245Z,70.38
2023-02-20T08:08:16.893Z,70.37
2023-02-20T08:09:48.480Z,71.10
2023-02-20T08:11:20.623Z,70.06
2023-02-20T08:12:52.801Z,69.78
2023-02-20T08:14:24.639Z,70.19
2023-02-20T08:15:56.206Z,69.85
2023-02-20T08:17:37.194Z,70.12
2023-02-20T08:19:16.146Z,69.82
2023-02-20T08:20:49.496Z,69.67
2023-02-20T08:22:22.638Z,69.70
2023-02-20T08:23:57.232Z,69.98
2023-02-20T08:25:28.801Z,70.27
2023-02-20T08:27:00.406Z,69.83
2023-02-20T08:28:32.032Z,70.15
2023-02-20T08:30:04.262Z,69.44
2023-02-20T08:31:35.971Z,68.74
2023-02-20T08:33:07.651Z,69.02
2023-02-20T08:34:39.258Z,68.57
2023-02-20T08:36:12.507Z,68.84
2023-02-20T08:37:44.759Z,68.73
2023-02-20T08:39:20.008Z,68.97
2023-02-20T08:40:51.981Z,69.35
2023-02-20T08:42:23.605Z,69.20
2023-02-20T08:43:55.497Z,69.61
2023-02-20T08:45:27.188Z,69.31
2023-02-20T08:46:58.914Z,68.60
2023-02-20T08:48:30.625Z,69.01
2023-02-20T08:50:02.227Z,69.00
2023-02-20T08:51:35.464Z,68.70
2023-02-20T08:53:07.035Z,69.14
2023-02-20T08:54:38.588Z,68.72
2023-02-20T08:56:10.686Z,68.90
2023-02-20T08:57:43.148Z,69.01
2023-02-20T08:59:14.783Z,68.96
2023-02-20T09:00:46.350Z,68.84
2023-02-20T09:02:19.049Z,69.05
2023-02-20T09:03:51.406Z,69.54
2023-02-20T09:05:22.978Z,69.33
2023-02-20T09:06:55.887Z,69.78
2023-02-20T09:08:27.453Z,69.75
2023-02-20T09:09:59.138Z,69.50
2023-02-20T09:11:31.918Z,69.07
2023-02-20T09:13:03.561Z,69.29
2023-02-20T09:14:35.150Z,69.45
2023-02-20T09:16:07.085Z,69.00
2023-02-20T09:17:38.733Z,68.65
2023-02-20T09:19:10.294Z,68.18
2023-02-20T09:20:42.288Z,68.27
2023-02-20T09:22:16.423Z,68.03
2023-02-20T09:23:48.492Z,68.48
2023-02-20T09:25:20.058Z,67.84
2023-02-20T09:26:51.752Z,68.33
2023-02-20T09:28:23.300Z,68.12
2023-02-20T09:29:54.807Z,68.14
2023-02-20T09:31:26.455Z,67.80
2023-02-20T09:32:58.152Z,67.84
2023-02-20T09:34:29.736Z,67.76
2023-02-20T09:36:01.289Z,67.87
2023-02-20T09:37:34.227Z,67.53
2023-02-20T09:39:05.893Z,68.35
2023-02-20T09:40:37.418Z,67.87
2023-02-20T09:42:16.769Z,67.45
2023-02-20T09:43:52.427Z,67.72
2023-02-20T09:45:26.283Z,67.31
2023-02-20T09:47:03.732Z,67.39
2023-02-20T09:48:41.312Z,67.13
2023-02-20T09:50:15.633Z,66.71
2023-02-20T09:51:50.968Z,66.86
2023-02-20T09:53:27.934Z,67.28
2023-02-20T09:55:03.252Z,67.11
2023-02-20T09:56:35.647Z,67.19
2023-02-20T09:58:07.522Z,67.12
2023-02-20T09:59:41.351Z,67.14
2023-02-20T10:01:14.465Z,66.62
2023-02-20T10:02:52.852Z,66.31
2023-02-20T10:04:27.474Z,66.89
2023-02-20T10:06:00.490Z,67.60
2023-02-20T10:07:33.180Z,67.32
2023-02-20T10:09:11.179Z,67.08
2023-02-20T10:10:42.755Z,66.83
2023-02-20T10:12:19.284Z,66.86
2023-02-20T10:13:54.708Z,66.67
2023-02-20T10:15:29.438Z,66.98
2023-02-20T10:17:09.538Z,66.75
2023-02-20T10:18:47.495Z,66.80
2023-02-20T10:20:23.365Z,67.33
2023-02-20T10:22:02.077Z,67.01
2023-02-20T10:23:38.068Z,67.38
2023-02-20T10:25:12.888Z,67.37
2023-02-20T10:26:47.080Z,67.05
2023-02-20T10:28:19.071Z,66.46
2023-02-20T10:29:51.196Z,66.08
2023-02-20T10:31:29.721Z,66.47
2023-02-20T10:33:04.468Z,66.71
2023-02-20T10:34:38.034Z,66.06
2023-02-20T10:36:12.445Z,66.08
2023-02-20T10:37:48.183Z,66.25
2023-02-20T10:39:21.965Z,65.91
2023-02-20T10:40:58.969Z,65.15
2023-02-20T10:42:32.968Z,65.51
2023-02-20T10:44:09.824Z,65.68
2023-02-20T10:45:45.840Z,65.01
2023-02-20T10:47:22.721Z,65.68
2023-02-20T10:48:57.341Z,65.94
2023-02-20T10:50:32.974Z,65.71
2023-02-20T10:52:06.935Z,65.39
2023-02-20T10:53:40.404Z,65.67
2023-02-20T10:55:15.313Z,65.64
2023-02-20T10:56:52.172Z,65.22
2023-02-20T10:58:26.187Z,65.43
2023-02-20T11:00:02.898Z,65.59
2023-02-20T11:01:35.795Z,66.05
2023-02-20T11:03:12.516Z,66.42
2023-02-20T11:04:47.524Z,66.33
2023-02-20T11:06:20.749Z,66.71
2023-02-20T11:07:52.746Z,65.78
2023-02-20T11:09:25.538Z,65.89
2023-02-20T11:10:59.541Z,66.12
2023-02-20T11:12:34.763Z,66.75
2023-02-20T11:14:11.019Z,66.66
2023-02-20T11:15:43.229Z,66.29
2023-02-20T11:17:16.215Z,66.28
2023-02-20T11:18:49.083Z,66.65
2023-02-20T11:20:35.575Z,67.03
2023-02-20T11:22:07.158Z,66.29
2023-02-20T11:23:40.693Z,66.45
2023-02-20T11:25:17.658Z,66.52
2023-02-20T11:26:52.089Z,66.94
2023-02-20T11:28:26.734Z,67.02
2023-02-20T11:30:01.847Z,67.41
2023-02-20T11:31:34.593Z,67.25
2023-02-20T11:33:11.334Z,67.33
2023-02-20T11:34:42.919Z,67.55
2023-02-20T11:36:19.134Z,67.23
2023-02-20T11:38:12.189Z,67.11
2023-02-20T11:39:46.239Z,67.49
2023-02-20T11:41:25.821Z,67.87
2023-02-20T11:43:09.695Z,67.68
2023-02-20T11:44:42.783Z,67.42
2023-02-20T11:46:15.886Z,66.88
2023-02-20T11:48:05.832Z,66.83
2023-02-20T11:49:38.558Z,67.14
2023-02-20T11:51:22.454Z,67.50
2023-02-20T11:52:59.053Z,67.14
2023-02-20T11:54:32.337Z,66.64
2023-02-20T11:56:08.416Z,66.44
2023-02-20T11:57:43.671Z,66.86
2023-02-20T11:59:26.243Z,67.20
2023-02-20T12:00:59.293Z,67.16
2023-02-20T12:02:31.053Z,67.13
2023-02-20T12:04:02.617Z,67.89
2023-02-20T12:05:38.390Z,67.73
2023-02-20T12:07:17.756Z,68.10
2023-02-20T12:08:52.830Z,68.24
2023-02-20T12:10:27.605Z,67.84
2023-02-20T12:11:59.162Z,67.95
2023-02-20T12:13:32.587Z,67.90
2023-02-20T12:15:06.270Z,67.39
2023-02-20T12:16:48.551Z,67.10
2023-02-20T12:18:38.114Z,67.28
2023-02-20T12:20:14.835Z,67.20
2023-02-20T12:21:52.844Z,66.96
2023-02-20T12:23:33.283Z,66.65
2023-02-20T12:25:11.340Z,67.18
2023-02-20T12:26:50.497Z,68.09
2023-02-20T12:28:28.802Z,67.75
2023-02-20T12:30:05.761Z,67.19
2023-02-20T12:31:46.669Z,66.92
2023-02-20T12:33:33.502Z,66.87
2023-02-20T12:35:17.033Z,67.26
2023-02-20T12:36:50.299Z,67.39
2023-02-20T12:38:28.675Z,67.60
2023-02-20T12:40:07.678Z,67.74
2023-02-20T12:41:45.233Z,67.37
2023-02-20T12:43:25.450Z,66.92
2023-02-20T12:45:14.213Z,67.12
2023-02-20T12:47:00.679Z,67.12
2023-02-20T12:48:40.649Z,67.62
2023-02-20T12:50:18.131Z,67.62
2023-02-20T12:51:53.874Z,67.12
2023-02-20T12:53:31.893Z,67.39
2023-02-20T12:55:08.519Z,67.82
2023-02-20T12:56:46.133Z,67.72
2023-02-20T12:58:25.703Z,67.19
2023-02-20T12:59:58.860Z,67.63
2023-02-20T13:01:39.120Z,67.89
2023-02-20T13:03:12.967Z,67.85
2023-02-20T13:04:51.021Z,68.30
2023-02-20T13:06:26.601Z,68.44
2023-02-20T13:08:01.613Z,68.42
2023-02-20T13:09:35.328Z,68.65
2023-02-20T13:11:11.086Z,68.58
2023-02-20T13:12:42.848Z,68.07
2023-02-20T13:14:23.881Z,67.76
2023-02-20T13:15:59.046Z,68.22
2023-02-20T13:17:35.889Z,68.46
2023-02-20T13:19:16.494Z,68.66
2023-02-20T13:20:53.030Z,68.93
2023-02-20T13:22:24.676Z,69.01
2023-02-20T13:24:11.095Z,68.81
2023-02-20T13:25:43.519Z,68.53
2023-02-20T13:27:27.481Z,68.42
2023-02-20T13:29:10.837Z,69.10
2023-02-20T13:30:42.452Z,68.58
2023-02-20T13:32:25.361Z,69.29
2023-02-20T13:34:13.324Z,69.65
2023-02-20T13:35:50.151Z,69.79
2023-02-20T13:37:37.491Z,69.79
2023-02-20T13:39:34.508Z,69.56
2023-02-20T13:41:07.572Z,69.96
2023-02-20T13:42:39.218Z,69.41
2023-02-20T13:44:31.073Z,69.75
2023-02-20T13:46:11.565Z,69.82
2023-02-20T13:47:43.360Z,70.03
2023-02-20T13:49:34.968Z,69.99
2023-02-20T13:51:25.456Z,70.26
2023-02-20T13:52:59.796Z,69.97
2023-02-20T13:54:33.984Z,70.17
2023-02-20T13:56:05.647Z,69.20
2023-02-20T13:57:43.550Z,69.06
2023-02-20T13:59:18.163Z,69.46
2023-02-20T14:00:54.939Z,70.13
2023-02-20T14:02:30.963Z,69.97
2023-02-20T14:04:03.491Z,68.98
2023-02-20T14:05:35.146Z,69.10
2023-02-20T14:07:06.794Z,69.36
2023-02-20T14:08:41.681Z,69.46
2023-02-20T14:10:18.893Z,69.40
2023-02-20T14:11:52.402Z,69.97
2023-02-20T14:13:39.067Z,68.79
2023-02-20T14:15:12.053Z,68.72
2023-02-20T14:16:44.417Z,69.07
2023-02-20T14:18:17.767Z,68.88
2023-02-20T14:19:55.667Z,69.06
2023-02-20T14:21:31.224Z,69.10
2023-02-20T14:23:07.020Z,68.47
2023-02-20T14:24:38.676Z,69.14
2023-02-20T14:26:20.146Z,68.58
2023-02-20T14:27:52.359Z,68.46
2023-02-20T14:29:25.213Z,68.50
2023-02-20T14:31:06.891Z,68.62
2023-02-20T14:32:42.007Z,68.59
2023-02-20T14:34:17.689Z,68.92
2023-02-20T14:35:52.977Z,68.79
2023-02-20T14:37:30.169Z,68.51
2023-02-20T14:39:09.763Z,69.01
2023-02-20T14:40:42.606Z,69.50
2023-02-20T14:42:19.733Z,69.79
2023-02-20T14:43:56.142Z,70.23
2023-02-20T14:45:28.086Z,70.06
2023-02-20T14:47:04.732Z,70.25
2023-02-20T14:48:41.273Z,69.96
2023-02-20T14:50:17.705Z,69.25
2023-02-20T14:51:49.532Z,69.56
2023-02-20T14:53:21.325Z,69.40
2023-02-20T14:54:57.188Z,69.73
2023-02-20T14:56:33.129Z,70.02
2023-02-20T14:58:07.731Z,70.80
2023-02-20T14:59:40.294Z,71.00
2023-02-20T15:01:16.531Z,71.14
2023-02-20T15:02:49.455Z,71.18
2023-02-20T15:04:23.294Z,70.54
2023-02-20T15:05:55.078Z,70.78
2023-02-20T15:07:27.456Z,70.54
2023-02-20T15:09:03.513Z,70.63
2023-02-20T15:10:40.962Z,70.68
2023-02-20T15:12:20.005Z,70.91
2023-02-20T15:13:53.518Z,71.23
2023-02-20T15:15:25.135Z,70.96
2023-02-20T15:17:06.632Z,70.66
2023-02-20T15:18:39.379Z,70.32
2023-02-20T15:20:17.984Z,70.36
2023-02-20T15:21:56.294Z,70.03
2023-02-20T15:23:29.655Z,70.01
2023-02-20T15:25:15.503Z,70.28
2023-02-20T15:26:47.275Z,70.12
2023-02-20T15:28:26.185Z,70.56
2023-02-20T15:30:09.764Z,69.91
2023-02-20T15:31:41.657Z,69.88
2023-02-20T15:33:13.266Z,69.63
2023-02-20T15:34:45.113Z,69.46
2023-02-20T15:36:19.520Z,70.55
2023-02-20T15:37:54.050Z,70.24
2023-02-20T15:39:25.718Z,70.47
2023-02-20T15:40:58.244Z,69.99
2023-02-20T15:42:29.904Z,70.03
2023-02-20T15:44:01.595Z,69.89
2023-02-20T15:45:37.662Z,69.43
2023-02-20T15:47:09.266Z,69.82
2023-02-20T15:48:41.109Z,69.81
2023-02-20T15:50:12.914Z,69.83
2023-02-20T15:51:45.644Z,69.58
2023-02-20T15:53:18.306Z,69.64
2023-02-20T15:54:53.022Z,69.17
2023-02-20T15:56:26.888Z,69.89
2023-02-20T15:57:59.190Z,70.16
2023-02-20T15:59:30.833Z,70.04
2023-02-20T16:01:04.247Z,70.42
2023-02-20T16:02:35.921Z,70.54
2023-02-20T16:04:08.293Z,70.85
2023-02-20T16:05:39.898Z,70.49
2023-02-20T16:07:11.561Z,70.46
2023-02-20T16:08:44.452Z,70.74
2023-02-20T16:10:16.874Z,70.93
2023-02-20T16:11:48.485Z,71.26
2023-02-20T16:13:24.086Z,71.23
2023-02-20T16:14:55.657Z,71.48
2023-02-20T16:16:32.567Z,70.57
2023-02-20T16:18:04.374Z,70.26
2023-02-20T16:19:42.460Z,70.04
2023-02-20T16:21:15.685Z,70.01
2023-02-20T16:22:47.511Z,70.15
2023-02-20T16:24:19.327Z,70.68
2023-02-20T16:25:51.038Z,70.74
2023-02-20T16:27:25.007Z,70.33
2023-02-20T16:28:58.607Z,70.16
2023-02-20T16:30:33.589Z,70.28
2023-02-20T16:32:21.093Z,69.97
2023-02-20T16:33:54.805Z,69.60
2023-02-20T16:35:26.691Z,69.75
2023-02-20T16:36:58.808Z,70.08
2023-02-20T16:38:30.340Z,70.38
2023-02-20T16:40:02.000Z,70.19
2023-02-20T16:41:34.056Z,70.42
2023-02-20T16:43:07.390Z,70.77
2023-02-20T16:44:42.319Z,70.69
2023-02-20T16:46:14.273Z,70.51
2023-02-20T16:47:48.903Z,70.49
2023-02-20T16:49:20.455Z,70.20
2023-02-20T16:50:53.546Z,69.70
2023-02-20T16:52:26.770Z,69.97
2023-02-20T16:53:58.451Z,69.66
2023-02-20T16:55:30.973Z,70.12
2023-02-20T16:57:02.541Z,69.97
2023-02-20T16:58:35.312Z,70.43
2023-02-20T17:00:07.449Z,70.09
2023-02-20T17:01:39.078Z,69.95
2023-02-20T17:03:12.148Z,69.98
2023-02-20T17:04:43.856Z,69.77
2023-02-20T17:06:19.540Z,70.37
2023-02-20T17:07:51.330Z,69.88
2023-02-20T17:09:26.400Z,69.84
2023-02-20T17:11:00.465Z,69.44
2023-02-20T17:12:34.099Z,70.06
2023-02-20T17:14:05.709Z,69.18
2023-02-20T17:15:37.829Z,69.87
2023-02-20T17:17:10.388Z,70.03
2023-02-20T17:18:43.345Z,70.04
2023-02-20T17:20:16.378Z,70.57
2023-02-20T17:21:48.274Z,70.20
2023-02-20T17:23:19.924Z,70.08
2023-02-20T17:24:52.241Z,69.81
2023-02-20T17:26:27.393Z,70.23
2023-02-20T17:27:59.465Z,70.42
2023-02-20T17:29:31.140Z,70.49
2023-02-20T17:31:02.691Z,70.16
2023-02-20T17:32:34.304Z,70.76
2023-02-20T17:34:07.497Z,70.75
2023-02-20T17:35:39.149Z,70.85
2023-02-20T17:37:10.887Z,71.12
2023-02-20T17:38:43.065Z,70.86
2023-02-20T17:40:15.567Z,71.15
2023-02-20T17:41:48.332Z,70.98
2023-02-20T17:43:20.145Z,70.55
2023-02-20T17:44:51.792Z,70.67
2023-02-20T17:46:23.341Z,70.22
2023-02-20T17:47:56.143Z,70.33
2023-02-20T17:49:29.185Z,70.42
2023-02-20T17:51:00.784Z,70.10
2023-02-20T17:52:32.532Z,70.11
2023-02-20T17:54:04.409Z,70.21
2023-02-20T17:55:36.178Z,70.53
2023-02-20T17:57:07.803Z,70.50
2023-02-20T17:58:39.426Z,70.93
2023-02-20T18:00:11.583Z,70.85
2023-02-20T18:01:43.792Z,70.59
2023-02-20T18:03:15.358Z,70.93
2023-02-20T18:04:48.261Z,71.31
2023-02-20T18:06:20.093Z,71.08
2023-02-20T18:07:51.733Z,71.35
2023-02-20T18:09:23.522Z,71.19
2023-02-20T18:10:55.102Z,71.46
2023-02-20T18:12:26.689Z,71.65
2023-02-20T18:13:58.879Z,71.73
2023-02-20T18:15:31.085Z,72.08
2023-02-20T18:17:02.758Z,71.78
2023-02-20T18:18:34.291Z,71.37
2023-02-20T18:20:07.742Z,71.51
2023-02-20T18:21:42.002Z,71.22
2023-02-20T18:23:13.745Z,71.21
2023-02-20T18:24:45.324Z,70.79
2023-02-20T18:26:17.653Z,70.87
2023-02-20T18:27:49.318Z,70.83
2023-02-20T18:29:21.306Z,70.81
2023-02-20T18:30:53.970Z,70.77
2023-02-20T18:32:25.677Z,71.40
2023-02-20T18:33:57.390Z,70.91
2023-02-20T18:35:30.308Z,70.47
2023-02-20T18:37:03.046Z,70.40
2023-02-20T18:38:34.667Z,70.65
2023-02-20T18:40:06.946Z,70.28
2023-02-20T18:41:38.524Z,70.52
2023-02-20T18:43:10.114Z,71.16
2023-02-20T18:44:45.272Z,71.16
2023-02-20T18:46:24.420Z,70.93
2023-02-20T18:47:56.083Z,70.66
2023-02-20T18:49:28.769Z,70.94
2023-02-20T18:51:02.003Z,71.04
2023-02-20T18:52:33.670Z,70.22
2023-02-20T18:54:05.981Z,70.11
2023-02-20T18:55:38.379Z,70.32
2023-02-20T18:57:11.144Z,70.89
2023-02-20T18:58:42.808Z,71.39
2023-02-20T19:00:15.971Z,71.05
2023-02-20T19:01:47.651Z,70.70
2023-02-20T19:03:20.119Z,71.08
2023-02-20T19:04:51.945Z,70.37
2023-02-20T19:06:26.164Z,70.46
2023-02-20T19:07:59.779Z,70.03
2023-02-20T19:09:36.783Z,71.19
2023-02-20T19:11:10.201Z,71.22
2023-02-20T19:12:41.850Z,71.33
2023-02-20T19:14:13.441Z,71.41
2023-02-20T19:15:45.003Z,71.63
2023-02-20T19:17:16.752Z,71.45
2023-02-20T19:18:50.751Z,71.37
2023-02-20T19:20:25.745Z,71.33
2023-02-20T19:22:00.878Z,71.42
2023-02-20T19:23:32.445Z,71.32
2023-02-20T19:25:04.137Z,71.71
2023-02-20T19:26:35.772Z,71.63
2023-02-20T19:28:07.393Z,71.72
2023-02-20T19:29:41.684Z,71.68
2023-02-20T19:31:14.494Z,71.95
2023-02-20T19:32:46.526Z,71.24
2023-02-20T19:34:19.356Z,71.39
2023-02-20T19:35:50.989Z,71.23
2023-02-20T19:37:23.921Z,71.52
2023-02-20T19:38:55.523Z,71.83
2023-02-20T19:40:28.648Z,71.54
2023-02-20T19:42:00.248Z,71.26
2023-02-20T19:43:32.167Z,71.72
2023-02-20T19:45:04.703Z,71.70
2023-02-20T19:46:36.412Z,71.79
2023-02-20T19:48:08.000Z,71.66
2023-02-20T19:49:39.553Z,71.69
2023-02-20T19:51:11.074Z,71.61
2023-02-20T19:52:44.468Z,72.14
2023-02-20T19:54:16.334Z,71.69
2023-02-20T19:55:49.327Z,71.72
2023-02-20T19:57:20.922Z,71.57
2023-02-20T19:58:52.497Z,71.82
2023-02-20T20:00:24.170Z,71.95
2023-02-20T20:01:56.280Z,72.56
2023-02-20T20:03:29.031Z,71.98
2023-02-20T20:05:00.632Z,71.78
2023-02-20T20:06:32.240Z,71.53
2023-02-20T20:08:06.775Z,71.91
2023-02-20T20:09:38.593Z,71.73
2023-02-20T20:11:10.222Z,71.73
2023-02-20T20:12:47.603Z,71.78
2023-02-20T20:14:20.751Z,72.27
2023-02-20T20:15:52.312Z,72.28